»·PEaware :: N5002T KONT-KCNO

N5002T :: KONT-KCNO

FLIGHT INFORMATION

Flight Status: Arrived
Operator: Privately registered:
United States
More flights under this callsign
Pilot: Hunter M. (19355)
Aircraft: CESSNA 172 SKYHAWK
(C172)
More flights by this aircraft type
Origin: KONT Ontario Intl
United States
Destination: KCNO Chino
United States
More flights between these airports :: More routes between these airports
Route: PDZ
File this flight plan on PilotEdge
Remarks: VTF ILS 26R
Altitude:
(Current/Filed)
4,000ft
Speed:
(Current/Filed)
115kts
Departed: 12-Nov-18 08:00 PM
Arrived: 12-Nov-18 08:29 PM
Distance/Time
Traveled:
5nm/0:29
Distance/Time
To Go:
Arrived

Flight Plot

Page will automatically refresh every two minutes.


Map Options




Map Legend


Flown Route
Filed Route
Departure Airport
Arrival Airport
Navaid (VOR, NDB)
Fix

Horizontal Profiles

Position Reports

Time Latitude Longitude Heading Altitude Ground
Speed
12-Nov-18 19:32 34.052419 -117.601312 89 947ft 0kts
12-Nov-18 19:33 34.052419 -117.601311 89 947ft 0kts
12-Nov-18 19:34 34.052419 -117.601311 89 947ft 0kts
12-Nov-18 19:35 34.052419 -117.601311 89 947ft 0kts
12-Nov-18 19:36 34.052419 -117.601311 89 947ft 0kts
12-Nov-18 19:37 34.052419 -117.601311 89 947ft 0kts
12-Nov-18 19:38 34.052419 -117.601310 89 947ft 0kts
12-Nov-18 19:39 34.052419 -117.601310 89 947ft 0kts
12-Nov-18 19:40 34.052419 -117.601309 89 947ft 0kts
12-Nov-18 19:41 34.052419 -117.601308 89 947ft 0kts
12-Nov-18 19:42 34.052419 -117.601307 89 947ft 0kts
12-Nov-18 19:43 34.052419 -117.601306 89 947ft 0kts
12-Nov-18 19:44 34.052419 -117.601305 90 947ft 0kts
12-Nov-18 19:45 34.052419 -117.601304 90 947ft 0kts
12-Nov-18 19:46 34.052419 -117.601304 90 947ft 0kts
12-Nov-18 19:47 34.052419 -117.601303 90 947ft 0kts
12-Nov-18 19:48 34.052419 -117.601302 90 947ft 0kts
12-Nov-18 19:49 34.052419 -117.601301 90 947ft 0kts
12-Nov-18 19:50 34.052419 -117.601286 88 947ft 0kts
12-Nov-18 19:51 34.052419 -117.601264 86 947ft 0kts
12-Nov-18 19:52 34.052419 -117.601263 86 947ft 0kts
12-Nov-18 19:53 34.052641 -117.601593 267 947ft 3kts
12-Nov-18 19:54 34.053331 -117.602833 346 947ft 5kts
12-Nov-18 19:55 34.053672 -117.599579 88 947ft 12kts
12-Nov-18 19:56 34.053663 -117.595227 88 947ft 12kts
12-Nov-18 19:57 34.053671 -117.591067 90 947ft 12kts
12-Nov-18 19:58 34.053666 -117.586764 89 947ft 14kts
12-Nov-18 19:59 34.053754 -117.582740 22 947ft 5kts
12-Nov-18 20:00 34.053932 -117.582696 5 947ft 0kts
12-Nov-18 20:01 34.054119 -117.582691 356 947ft 2kts
12-Nov-18 20:02 34.054956 -117.583188 263 947ft 0kts
12-Nov-18 20:03 34.054930 -117.586947 270 947ft 62kts
12-Nov-18 20:04 34.053681 -117.612668 271 1707ft 81kts
12-Nov-18 20:05 34.053994 -117.641923 271 2450ft 92kts
12-Nov-18 20:06 34.055858 -117.673468 271 3170ft 94kts
12-Nov-18 20:07 34.058694 -117.704766 271 3852ft 93kts
12-Nov-18 20:08 34.043138 -117.710911 151 4020ft 92kts
12-Nov-18 20:09 34.026526 -117.700013 151 4011ft 89kts
12-Nov-18 20:10 34.006126 -117.686556 151 4015ft 89kts
12-Nov-18 20:11 33.984348 -117.672089 151 4016ft 89kts
12-Nov-18 20:12 33.962726 -117.657631 151 4015ft 89kts
12-Nov-18 20:13 33.941027 -117.642964 151 4009ft 89kts
12-Nov-18 20:14 33.925672 -117.623243 90 4033ft 89kts
12-Nov-18 20:15 33.927160 -117.591901 90 4009ft 94kts
12-Nov-18 20:16 33.928281 -117.560611 89 4000ft 89kts
12-Nov-18 20:17 33.925988 -117.530628 90 4008ft 92kts
12-Nov-18 20:18 33.924682 -117.498838 90 4008ft 97kts
12-Nov-18 20:19 33.923997 -117.466190 90 4004ft 97kts
12-Nov-18 20:20 33.925367 -117.433742 50 3994ft 98kts
12-Nov-18 20:21 33.947573 -117.433807 350 3457ft 77kts
12-Nov-18 20:22 33.969338 -117.436393 349 3016ft 83kts
12-Nov-18 20:23 33.977636 -117.454887 268 3016ft 79kts
12-Nov-18 20:24 33.976390 -117.481679 268 3005ft 80kts
12-Nov-18 20:25 33.976759 -117.507255 271 2653ft 75kts
12-Nov-18 20:26 33.977151 -117.532619 266 2265ft 77kts
12-Nov-18 20:27 33.976567 -117.554930 261 1807ft 62kts
12-Nov-18 20:28 33.976020 -117.575711 271 1586ft 61kts
12-Nov-18 20:29 33.976328 -117.595613 268 1233ft 60kts
12-Nov-18 20:30 33.976038 -117.614644 268 930ft 54kts
12-Nov-18 20:31 33.975838 -117.632990 267 655ft 44kts
12-Nov-18 20:32 33.975814 -117.636470 266 655ft 2kts
12-Nov-18 20:33 33.976261 -117.637207 67 655ft 0kts
12-Nov-18 20:34 33.976637 -117.637161 347 655ft 0kts
12-Nov-18 20:35 33.977266 -117.636180 2 655ft 0kts

Navigation Log

Ident Type
Flight plan parsing failed, navigation log unavailable